createdAt,value
2023-02-24T00:01:52.735Z,11.45
2023-02-24T00:04:20.940Z,7.72
2023-02-24T00:06:48.595Z,8.32
2023-02-24T00:09:19.807Z,11.32
2023-02-24T00:11:57.349Z,7.90
2023-02-24T00:14:26.912Z,8.88
2023-02-24T00:16:54.137Z,7.65
2023-02-24T00:19:23.901Z,14.40
2023-02-24T00:21:51.884Z,9.30
2023-02-24T00:24:18.869Z,12.10
2023-02-24T00:26:46.126Z,8.85
2023-02-24T00:29:16.062Z,9.35
2023-02-24T00:31:43.270Z,10.13
2023-02-24T00:34:15.105Z,7.70
2023-02-24T00:36:41.919Z,8.68
2023-02-24T00:39:10.121Z,13.20
2023-02-24T00:41:44.544Z,8.88
2023-02-24T00:44:14.164Z,8.70
2023-02-24T00:46:44.280Z,7.32
2023-02-24T00:49:17.235Z,7.70
2023-02-24T00:51:48.231Z,9.65
2023-02-24T00:54:17.815Z,10.18
2023-02-24T00:56:46.658Z,9.48
2023-02-24T00:59:16.287Z,7.50
2023-02-24T01:01:46.890Z,10.82
2023-02-24T01:04:14.105Z,8.50
2023-02-24T01:06:45.169Z,8.18
2023-02-24T01:09:15.159Z,7.75
2023-02-24T01:12:22.666Z,8.68
2023-02-24T01:14:51.886Z,6.72
2023-02-24T01:17:20.085Z,8.35
2023-02-24T01:19:49.704Z,8.40
2023-02-24T01:22:18.774Z,8.07
2023-02-24T01:24:46.064Z,6.35
2023-02-24T01:27:14.462Z,9.57
2023-02-24T01:29:41.328Z,5.78
2023-02-24T01:32:13.924Z,5.95
2023-02-24T01:34:42.502Z,11.00
2023-02-24T01:37:10.076Z,6.75
2023-02-24T01:39:37.259Z,9.65
2023-02-24T01:42:06.312Z,6.78
2023-02-24T01:44:53.843Z,13.73
2023-02-24T01:47:21.554Z,7.95
2023-02-24T01:49:52.601Z,8.43
2023-02-24T01:52:24.333Z,7.50
2023-02-24T01:54:56.721Z,10.73
2023-02-24T01:57:26.269Z,10.45
2023-02-24T01:59:58.009Z,7.93
2023-02-24T02:02:25.062Z,10.65
2023-02-24T02:04:58.544Z,7.43
2023-02-24T02:07:28.452Z,7.63
2023-02-24T02:10:00.107Z,10.45
2023-02-24T02:12:28.417Z,15.35
2023-02-24T02:14:59.549Z,5.50
2023-02-24T02:17:43.579Z,8.05
2023-02-24T02:20:35.278Z,6.70
2023-02-24T02:23:11.203Z,8.88
2023-02-24T02:26:07.579Z,5.22
2023-02-24T02:28:54.049Z,6.93
2023-02-24T02:31:51.815Z,8.38
2023-02-24T02:34:41.443Z,14.13
2023-02-24T02:37:14.700Z,9.13
2023-02-24T02:39:52.781Z,6.40
2023-02-24T02:42:28.747Z,8.13
2023-02-24T02:45:08.734Z,10.05
2023-02-24T02:47:41.153Z,9.38
2023-02-24T02:50:23.641Z,6.93
2023-02-24T02:53:10.112Z,11.15
2023-02-24T02:55:42.700Z,7.20
2023-02-24T02:58:15.235Z,12.45
2023-02-24T03:00:58.666Z,6.78
2023-02-24T03:03:27.943Z,10.18
2023-02-24T03:05:59.630Z,10.45
2023-02-24T03:08:30.778Z,7.93
2023-02-24T03:11:01.470Z,12.20
2023-02-24T03:13:34.680Z,11.77
2023-02-24T03:16:03.864Z,11.38
2023-02-24T03:18:35.134Z,8.40
2023-02-24T03:21:24.140Z,9.27
2023-02-24T03:23:52.453Z,7.82
2023-02-24T03:26:28.341Z,7.68
2023-02-24T03:29:13.205Z,7.78
2023-02-24T03:31:51.643Z,6.30
2023-02-24T03:34:24.134Z,7.88
2023-02-24T03:36:51.000Z,5.35
2023-02-24T03:39:17.987Z,5.28
2023-02-24T03:41:56.297Z,5.43
2023-02-24T03:44:25.013Z,8.18
2023-02-24T03:46:52.655Z,8.65
2023-02-24T03:49:19.430Z,8.45
2023-02-24T03:51:57.295Z,8.32
2023-02-24T03:54:49.362Z,7.75
2023-02-24T03:57:29.521Z,7.70
2023-02-24T04:00:42.249Z,7.68
2023-02-24T04:03:25.745Z,4.47
2023-02-24T04:06:01.729Z,12.00
2023-02-24T04:08:34.469Z,9.25
2023-02-24T04:11:17.012Z,6.63
2023-02-24T04:13:48.240Z,3.67
2023-02-24T04:16:39.992Z,7.35
2023-02-24T04:19:15.610Z,6.22
2023-02-24T04:21:44.576Z,4.63
2023-02-24T04:24:16.270Z,8.27
2023-02-24T04:26:47.893Z,5.60
2023-02-24T04:31:53.364Z,5.50
2023-02-24T04:34:21.241Z,4.95
2023-02-24T04:36:49.757Z,9.52
2023-02-24T04:39:23.418Z,12.48
2023-02-24T04:41:50.823Z,5.82
2023-02-24T04:44:22.009Z,4.72
2023-02-24T04:46:50.137Z,16.30
2023-02-24T04:49:17.995Z,3.33
2023-02-24T04:51:45.413Z,5.40
2023-02-24T04:54:17.301Z,3.67
2023-02-24T04:56:45.602Z,4.15
2023-02-24T04:59:12.330Z,8.82
2023-02-24T05:01:42.434Z,7.32
2023-02-24T05:04:10.175Z,5.22
2023-02-24T05:06:40.982Z,6.93
2023-02-24T05:09:14.131Z,13.25
2023-02-24T05:11:49.495Z,7.40
2023-02-24T05:14:18.353Z,10.82
2023-02-24T05:16:47.869Z,7.78
2023-02-24T05:19:35.648Z,2.95
2023-02-24T05:22:04.341Z,6.88
2023-02-24T05:24:33.189Z,8.05
2023-02-24T05:27:00.510Z,4.07
2023-02-24T05:29:30.753Z,2.95
2023-02-24T05:32:00.002Z,3.30
2023-02-24T05:34:32.047Z,4.22
2023-02-24T05:39:26.444Z,5.43
2023-02-24T05:41:57.253Z,5.70
2023-02-24T05:44:26.573Z,6.30
2023-02-24T05:46:58.657Z,5.20
2023-02-24T05:49:33.814Z,5.13
2023-02-24T05:52:07.876Z,7.68
2023-02-24T05:54:42.834Z,7.03
2023-02-24T05:57:12.535Z,6.88
2023-02-24T05:59:41.011Z,5.50
2023-02-24T06:02:13.640Z,6.85
2023-02-24T06:04:50.649Z,8.70
2023-02-24T06:07:25.203Z,5.43
2023-02-24T06:09:57.806Z,6.45
2023-02-24T06:12:28.154Z,6.53
2023-02-24T06:14:55.171Z,6.63
2023-02-24T06:17:23.136Z,7.95
2023-02-24T06:19:52.049Z,7.50
2023-02-24T06:22:21.560Z,7.38
2023-02-24T06:24:49.450Z,6.43
2023-02-24T06:27:18.933Z,10.38
2023-02-24T06:29:49.793Z,9.10
2023-02-24T06:32:21.517Z,2.92
2023-02-24T06:34:48.311Z,7.32
2023-02-24T06:37:16.284Z,7.95
2023-02-24T06:39:43.419Z,6.65
2023-02-24T06:42:11.966Z,7.25
2023-02-24T06:44:40.469Z,5.47
2023-02-24T06:47:08.948Z,6.35
2023-02-24T06:49:35.687Z,6.32
2023-02-24T06:52:03.225Z,4.88
2023-02-24T06:54:30.626Z,7.35
2023-02-24T06:56:59.560Z,3.35
2023-02-24T06:59:29.796Z,5.70
2023-02-24T07:01:57.916Z,7.53
2023-02-24T07:04:28.061Z,7.75
2023-02-24T07:07:03.295Z,8.15
2023-02-24T07:09:31.264Z,8.63
2023-02-24T07:11:58.827Z,9.18
2023-02-24T07:14:27.798Z,5.70
2023-02-24T07:16:55.171Z,3.67
2023-02-24T07:19:25.187Z,6.53
2023-02-24T07:22:03.366Z,6.60
2023-02-24T07:27:03.995Z,3.90
2023-02-24T07:29:32.476Z,6.88
2023-02-24T07:32:03.312Z,5.78
2023-02-24T07:34:30.507Z,9.07
2023-02-24T07:36:57.360Z,4.05
2023-02-24T07:39:24.211Z,4.85
2023-02-24T07:41:53.132Z,8.15
2023-02-24T07:44:23.070Z,7.03
2023-02-24T07:46:51.097Z,5.82
2023-02-24T07:49:23.285Z,7.85
2023-02-24T07:51:53.131Z,6.55
2023-02-24T07:54:21.380Z,6.88
2023-02-24T07:56:56.620Z,9.15
2023-02-24T07:59:26.258Z,4.47
2023-02-24T08:01:55.796Z,7.25
2023-02-24T08:04:29.965Z,4.70
2023-02-24T08:06:58.804Z,5.25
2023-02-24T08:09:46.967Z,8.43
2023-02-24T08:12:21.451Z,10.82
2023-02-24T08:14:51.533Z,6.10
2023-02-24T08:17:24.286Z,5.45
2023-02-24T08:20:11.718Z,6.35
2023-02-24T08:22:43.826Z,7.85
2023-02-24T08:27:42.239Z,4.55
2023-02-24T08:30:23.454Z,7.38
2023-02-24T08:32:57.259Z,5.47
2023-02-24T08:35:32.231Z,9.60
2023-02-24T08:38:07.789Z,8.07
2023-02-24T08:40:38.221Z,6.43
2023-02-24T08:43:17.439Z,6.25
2023-02-24T08:46:12.438Z,9.15
2023-02-24T08:48:47.932Z,6.35
2023-02-24T08:51:18.008Z,7.93
2023-02-24T08:53:46.848Z,5.75
2023-02-24T08:56:23.915Z,5.53
2023-02-24T08:58:57.289Z,6.28
2023-02-24T09:01:34.704Z,4.00
2023-02-24T09:04:07.258Z,8.48
2023-02-24T09:07:10.770Z,6.28
2023-02-24T09:09:42.206Z,9.38
2023-02-24T09:12:17.166Z,10.20
2023-02-24T09:14:43.970Z,7.40
2023-02-24T09:17:15.083Z,5.68
2023-02-24T09:19:47.604Z,9.27
2023-02-24T09:22:31.729Z,8.93
2023-02-24T09:25:17.932Z,6.88
2023-02-24T09:27:52.575Z,4.78
2023-02-24T09:30:37.881Z,5.78
2023-02-24T09:33:19.307Z,6.55
2023-02-24T09:36:03.389Z,8.80
2023-02-24T09:38:49.257Z,4.63
2023-02-24T09:42:18.014Z,4.30
2023-02-24T09:44:52.645Z,4.80
2023-02-24T09:47:39.609Z,4.75
2023-02-24T09:50:44.269Z,3.42
2023-02-24T09:53:17.116Z,3.88
2023-02-24T09:56:03.997Z,4.55
2023-02-24T09:58:48.729Z,4.00
2023-02-24T10:04:22.842Z,2.58
2023-02-24T10:06:59.611Z,5.22
2023-02-24T10:09:35.512Z,3.80
2023-02-24T10:12:06.774Z,2.92
2023-02-24T10:15:17.153Z,4.80
2023-02-24T10:18:04.013Z,3.42
2023-02-24T10:20:45.601Z,5.53
2023-02-24T10:23:29.827Z,6.07
2023-02-24T10:26:06.746Z,4.22
2023-02-24T10:28:51.997Z,5.55
2023-02-24T10:31:35.748Z,2.92
2023-02-24T10:34:10.014Z,4.03
2023-02-24T10:36:37.866Z,3.58
2023-02-24T10:39:26.956Z,5.55
2023-02-24T10:41:59.101Z,3.13
2023-02-24T10:44:36.071Z,5.47
2023-02-24T10:47:13.302Z,4.88
2023-02-24T10:49:57.772Z,5.30
2023-02-24T10:52:36.965Z,4.70
2023-02-24T10:55:28.313Z,3.65
2023-02-24T10:58:06.376Z,3.70
2023-02-24T11:01:04.170Z,4.05
2023-02-24T11:03:41.754Z,5.30
2023-02-24T11:06:41.908Z,5.30
2023-02-24T11:09:29.457Z,5.18
2023-02-24T11:12:32.797Z,3.33
2023-02-24T11:15:22.590Z,5.57
2023-02-24T11:17:58.404Z,4.65
2023-02-24T11:20:49.969Z,3.97
2023-02-24T11:23:24.662Z,5.38
2023-02-24T11:25:54.032Z,5.07
2023-02-24T11:28:58.405Z,4.88
2023-02-24T11:31:39.855Z,4.82
2023-02-24T11:34:34.345Z,4.30
2023-02-24T11:37:27.099Z,5.15
2023-02-24T11:40:27.002Z,3.95
2023-02-24T11:43:07.456Z,6.03
2023-02-24T11:45:46.518Z,4.25
2023-02-24T11:48:17.247Z,5.28
2023-02-24T11:50:46.749Z,3.70
2023-02-24T11:53:36.987Z,4.05
2023-02-24T11:56:13.182Z,3.08
2023-02-24T11:58:52.329Z,4.10
2023-02-24T12:01:28.741Z,6.35
2023-02-24T12:04:05.301Z,4.18
2023-02-24T12:07:13.401Z,5.00
2023-02-24T12:10:15.613Z,4.53
2023-02-24T12:12:43.641Z,4.30
2023-02-24T12:15:17.782Z,3.90
2023-02-24T12:17:58.004Z,3.25
2023-02-24T12:20:35.041Z,4.75
2023-02-24T12:23:28.405Z,3.22
2023-02-24T12:26:18.675Z,3.70
2023-02-24T12:28:48.762Z,4.72
2023-02-24T12:31:37.679Z,4.75
2023-02-24T12:34:18.486Z,3.17
2023-02-24T12:36:48.128Z,5.30
2023-02-24T12:39:31.621Z,7.90
2023-02-24T12:42:07.537Z,4.85
2023-02-24T12:45:30.212Z,5.72
2023-02-24T12:48:18.557Z,5.20
2023-02-24T12:51:16.511Z,6.55
2023-02-24T12:53:59.398Z,4.95
2023-02-24T12:56:48.778Z,6.75
2023-02-24T12:59:19.585Z,5.57
2023-02-24T13:01:59.733Z,8.57
2023-02-24T13:04:45.713Z,8.20
2023-02-24T13:07:39.878Z,8.70
2023-02-24T13:10:21.128Z,8.50
2023-02-24T13:13:10.820Z,6.88
2023-02-24T13:15:48.503Z,8.68
2023-02-24T13:18:27.540Z,7.35
2023-02-24T13:21:05.890Z,8.32
2023-02-24T13:25:59.678Z,8.27
2023-02-24T13:28:33.554Z,10.02
2023-02-24T13:31:08.470Z,7.53
2023-02-24T13:33:43.547Z,9.32
2023-02-24T13:36:10.631Z,10.80
2023-02-24T13:38:40.740Z,7.90
2023-02-24T13:41:07.674Z,9.30
2023-02-24T13:43:34.512Z,7.00
2023-02-24T13:46:04.660Z,8.48
2023-02-24T13:48:51.301Z,8.45
2023-02-24T13:51:24.123Z,11.35
2023-02-24T13:54:41.723Z,7.45
2023-02-24T13:57:48.671Z,12.25
2023-02-24T14:00:53.075Z,9.43
2023-02-24T14:03:22.490Z,9.02
2023-02-24T14:05:51.508Z,10.75
2023-02-24T14:08:23.659Z,10.73
2023-02-24T14:10:57.371Z,8.75
2023-02-24T14:13:29.980Z,9.55
2023-02-24T14:15:58.722Z,12.80
2023-02-24T14:18:29.014Z,6.90
2023-02-24T14:20:57.576Z,10.98
2023-02-24T14:23:30.186Z,10.27
2023-02-24T14:26:12.214Z,8.05
2023-02-24T14:28:40.467Z,9.25
2023-02-24T14:31:15.847Z,8.52
2023-02-24T14:33:45.119Z,10.57
2023-02-24T14:36:20.901Z,7.60
2023-02-24T14:39:01.034Z,13.45
2023-02-24T14:41:28.000Z,10.73
2023-02-24T14:43:56.313Z,11.80
2023-02-24T14:46:23.775Z,11.63
2023-02-24T14:48:56.150Z,11.40
2023-02-24T14:51:29.677Z,12.13
2023-02-24T14:54:00.692Z,13.65
2023-02-24T14:56:32.331Z,10.00
2023-02-24T14:59:04.833Z,12.02
2023-02-24T15:01:39.735Z,12.82
2023-02-24T15:04:30.555Z,9.93
2023-02-24T15:06:57.641Z,11.38
2023-02-24T15:09:33.595Z,9.60
2023-02-24T15:12:12.696Z,10.48
2023-02-24T15:14:43.570Z,18.08
2023-02-24T15:17:19.510Z,8.65
2023-02-24T15:19:49.234Z,14.15
2023-02-24T15:22:23.012Z,10.68
2023-02-24T15:24:51.142Z,11.10
2023-02-24T15:27:17.839Z,10.68
2023-02-24T15:29:56.421Z,9.10
2023-02-24T15:32:25.974Z,11.85
2023-02-24T15:34:52.860Z,11.20
2023-02-24T15:37:26.028Z,8.82
2023-02-24T15:40:03.241Z,11.82
2023-02-24T15:42:35.245Z,12.18
2023-02-24T15:47:44.237Z,12.10
2023-02-24T15:52:40.530Z,8.25
2023-02-24T15:55:10.412Z,12.75
2023-02-24T15:57:37.240Z,13.10
2023-02-24T16:00:14.862Z,12.80
2023-02-24T16:02:41.915Z,13.55
2023-02-24T16:05:15.842Z,13.52
2023-02-24T16:07:45.669Z,12.43
2023-02-24T16:10:25.743Z,15.32
2023-02-24T16:13:01.595Z,12.63
2023-02-24T16:15:38.004Z,17.67
2023-02-24T16:18:14.175Z,14.65
2023-02-24T16:20:40.892Z,11.73
2023-02-24T16:23:07.665Z,15.98
2023-02-24T16:25:41.947Z,12.50
2023-02-24T16:28:27.317Z,14.55
2023-02-24T16:30:54.381Z,14.70
2023-02-24T16:33:23.690Z,18.77
2023-02-24T16:35:53.466Z,16.50
2023-02-24T16:38:21.805Z,12.18
2023-02-24T16:40:49.875Z,13.88
2023-02-24T16:43:16.976Z,13.18
2023-02-24T16:45:45.151Z,13.98
2023-02-24T16:48:38.618Z,15.13
2023-02-24T16:51:07.815Z,14.15
2023-02-24T16:53:36.155Z,16.33
2023-02-24T16:56:04.678Z,11.02
2023-02-24T16:58:32.848Z,13.00
2023-02-24T17:01:02.965Z,10.82
2023-02-24T17:03:38.066Z,7.30
2023-02-24T17:06:05.325Z,7.25
2023-02-24T17:08:32.419Z,9.32
2023-02-24T17:10:59.166Z,9.95
2023-02-24T17:13:25.982Z,6.32
2023-02-24T17:15:55.297Z,11.65
2023-02-24T17:18:23.400Z,7.72
2023-02-24T17:20:50.729Z,8.50
2023-02-24T17:23:17.660Z,8.15
2023-02-24T17:25:45.067Z,6.10
2023-02-24T17:28:11.988Z,5.32
2023-02-24T17:30:39.609Z,6.43
2023-02-24T17:33:06.472Z,6.40
2023-02-24T17:35:33.259Z,5.78
2023-02-24T17:38:00.063Z,4.43
2023-02-24T17:40:26.820Z,6.00
2023-02-24T17:42:53.770Z,4.45
2023-02-24T17:45:20.668Z,6.88
2023-02-24T17:47:47.452Z,4.13
2023-02-24T17:50:14.402Z,4.57
2023-02-24T17:52:41.354Z,5.38
2023-02-24T17:55:08.750Z,6.93
2023-02-24T17:57:36.178Z,4.50
2023-02-24T18:00:04.846Z,7.43
2023-02-24T18:02:31.734Z,7.50
2023-02-24T18:04:58.532Z,6.28
2023-02-24T18:07:25.329Z,5.57
2023-02-24T18:09:52.228Z,8.23
2023-02-24T18:12:20.832Z,7.60
2023-02-24T18:14:56.145Z,8.35
2023-02-24T18:17:29.772Z,7.50
2023-02-24T18:19:56.763Z,6.18
2023-02-24T18:22:23.607Z,5.78
2023-02-24T18:24:50.817Z,3.88
2023-02-24T18:27:18.357Z,7.75
2023-02-24T18:29:45.174Z,9.52
2023-02-24T18:32:12.153Z,6.78
2023-02-24T18:34:39.163Z,6.75
2023-02-24T18:37:05.997Z,6.68
2023-02-24T18:39:32.868Z,10.75
2023-02-24T18:41:59.747Z,6.20
2023-02-24T18:44:26.624Z,7.25
2023-02-24T18:46:53.481Z,7.38
2023-02-24T18:49:20.454Z,7.95
2023-02-24T18:51:48.863Z,8.68
2023-02-24T18:54:16.633Z,10.48
2023-02-24T18:56:43.669Z,6.18
2023-02-24T18:59:10.767Z,8.98
2023-02-24T19:01:39.291Z,6.57
2023-02-24T19:04:07.609Z,7.65
2023-02-24T19:06:34.996Z,3.97
2023-02-24T19:09:10.350Z,5.00
2023-02-24T19:11:38.997Z,5.47
2023-02-24T19:14:06.031Z,2.28
2023-02-24T19:16:33.510Z,3.78
2023-02-24T19:19:00.873Z,4.45
2023-02-24T19:21:31.970Z,5.03
2023-02-24T19:24:03.893Z,6.47
2023-02-24T19:28:58.497Z,3.50
2023-02-24T19:31:28.976Z,4.68
2023-02-24T19:34:07.432Z,3.88
2023-02-24T19:36:36.405Z,5.22
2023-02-24T19:39:05.211Z,4.30
2023-02-24T19:41:32.043Z,5.57
2023-02-24T19:43:59.016Z,6.22
2023-02-24T19:46:26.212Z,6.57
2023-02-24T19:48:53.786Z,4.90
2023-02-24T19:51:23.430Z,6.43
2023-02-24T19:53:54.939Z,6.32
2023-02-24T19:56:23.761Z,2.60
2023-02-24T19:58:54.858Z,3.63
2023-02-24T20:01:23.242Z,3.80
2023-02-24T20:03:50.582Z,5.68
2023-02-24T20:06:18.350Z,3.65
2023-02-24T20:08:45.113Z,6.25
2023-02-24T20:11:12.341Z,3.17
2023-02-24T20:13:39.181Z,2.80
2023-02-24T20:16:10.171Z,3.28
2023-02-24T20:18:36.997Z,4.10
2023-02-24T20:21:04.287Z,4.97
2023-02-24T20:23:35.022Z,2.05
2023-02-24T20:26:02.132Z,1.73
2023-02-24T20:28:29.550Z,2.50
2023-02-24T20:30:58.550Z,1.10
2023-02-24T20:33:26.415Z,1.58
2023-02-24T20:35:53.092Z,3.78
2023-02-24T20:38:19.988Z,2.83
2023-02-24T20:40:56.546Z,1.20
2023-02-24T20:43:23.469Z,1.40
2023-02-24T20:45:50.146Z,5.82
2023-02-24T20:48:17.167Z,2.00
2023-02-24T20:50:44.013Z,7.95
2023-02-24T20:53:10.881Z,6.57
2023-02-24T20:55:38.650Z,2.25
2023-02-24T20:58:06.018Z,2.58
2023-02-24T21:00:34.249Z,4.00
2023-02-24T21:03:01.797Z,3.10
2023-02-24T21:05:28.520Z,4.03
2023-02-24T21:07:55.571Z,2.97
2023-02-24T21:10:22.889Z,5.22
2023-02-24T21:12:50.618Z,2.35
2023-02-24T21:15:17.448Z,3.13
2023-02-24T21:17:44.237Z,5.00
2023-02-24T21:20:12.165Z,2.88
2023-02-24T21:22:40.402Z,2.17
2023-02-24T21:25:10.970Z,2.88
2023-02-24T21:27:38.631Z,5.70
2023-02-24T21:30:07.308Z,3.67
2023-02-24T21:32:34.543Z,4.47
2023-02-24T21:35:02.229Z,3.80
2023-02-24T21:37:29.454Z,4.00
2023-02-24T21:39:56.888Z,6.43
2023-02-24T21:42:23.871Z,3.13
2023-02-24T21:44:51.137Z,1.55
2023-02-24T21:47:18.584Z,5.35
2023-02-24T21:49:46.310Z,6.25
2023-02-24T21:52:13.523Z,6.28
2023-02-24T21:54:40.293Z,3.92
2023-02-24T21:57:07.376Z,4.55
2023-02-24T21:59:34.362Z,3.47
2023-02-24T22:02:01.159Z,6.22
2023-02-24T22:04:28.168Z,5.20
2023-02-24T22:06:55.043Z,6.53
2023-02-24T22:09:21.715Z,5.18
2023-02-24T22:11:49.885Z,2.78
2023-02-24T22:14:16.903Z,4.50
2023-02-24T22:16:44.212Z,3.25
2023-02-24T22:19:12.017Z,2.58
2023-02-24T22:21:42.468Z,3.75
2023-02-24T22:24:13.630Z,2.55
2023-02-24T22:26:40.608Z,4.47
2023-02-24T22:29:07.889Z,3.10
2023-02-24T22:31:36.575Z,3.92
2023-02-24T22:34:04.453Z,3.38
2023-02-24T22:36:34.300Z,2.55
2023-02-24T22:43:21.022Z,2.95
2023-02-24T22:45:58.638Z,3.50
2023-02-24T22:48:26.644Z,3.38
2023-02-24T22:50:57.727Z,5.70
2023-02-24T22:53:25.512Z,7.07
2023-02-24T22:55:53.688Z,4.90
2023-02-24T22:58:21.794Z,8.07
2023-02-24T23:00:48.708Z,4.80
2023-02-24T23:03:21.194Z,8.45
2023-02-24T23:06:06.573Z,5.55
2023-02-24T23:08:37.031Z,4.95
2023-02-24T23:11:13.468Z,5.13
2023-02-24T23:13:42.312Z,3.67
2023-02-24T23:16:13.902Z,4.45
2023-02-24T23:18:41.948Z,6.32
2023-02-24T23:21:10.177Z,4.10
2023-02-24T23:23:37.459Z,5.50
2023-02-24T23:26:05.389Z,4.93
2023-02-24T23:28:32.187Z,3.70
2023-02-24T23:30:59.049Z,1.73
2023-02-24T23:33:26.332Z,2.53
2023-02-24T23:35:53.059Z,4.43
2023-02-24T23:38:19.785Z,5.20
2023-02-24T23:40:50.971Z,3.65
2023-02-24T23:43:18.471Z,3.50
2023-02-24T23:45:45.417Z,3.50
2023-02-24T23:48:14.359Z,4.35
2023-02-24T23:50:42.587Z,1.77
2023-02-24T23:53:10.077Z,5.40
2023-02-24T23:55:40.188Z,4.00
2023-02-24T23:58:08.030Z,5.18
